Time;durP1;ratioP1;P1;durP2;ratioP2;P2;SDS_P1;SDS_P2;PMS_P1;PMS_P2;Temp;Humidity;BMP_temperature;BMP_pressure;BME280_temperature;BME280_humidity;BME280_pressure;Samples;Min_cycle;Max_cycle;Signal;HPM_P1;HPM_P2
2023/11/18 00:01:05;;;;;;;11.32;8.57;;;8.90;99.90;;;;;;5068802;28;20216;-84
2023/11/18 00:03:35;;;;;;;8.02;6.10;;;8.90;99.90;;;;;;5071835;28;20313;-84
2023/11/18 00:06:03;;;;;;;6.38;5.13;;;8.90;99.90;;;;;;5075733;28;20543;-83
2023/11/18 00:08:31;;;;;;;6.10;5.53;;;8.90;99.90;;;;;;5076845;28;20569;-84
2023/11/18 00:10:58;;;;;;;6.85;6.15;;;8.90;99.90;;;;;;5076039;28;20228;-83
2023/11/18 00:13:26;;;;;;;6.07;5.47;;;9.00;99.90;;;;;;5076902;28;20228;-84
2023/11/18 00:15:54;;;;;;;6.22;5.63;;;8.90;99.90;;;;;;5076305;28;20236;-80
2023/11/18 00:18:22;;;;;;;6.13;5.53;;;8.90;99.90;;;;;;5076608;28;20248;-80
2023/11/18 00:20:50;;;;;;;6.75;5.97;;;8.90;99.90;;;;;;5074878;28;20219;-81
2023/11/18 00:23:17;;;;;;;7.00;5.97;;;8.90;99.90;;;;;;5076319;28;20231;-80
2023/11/18 00:25:45;;;;;;;5.72;5.22;;;8.90;99.90;;;;;;5076803;28;20220;-84
2023/11/18 00:28:14;;;;;;;5.13;4.63;;;8.90;99.90;;;;;;5076733;28;20212;-83
2023/11/18 00:30:41;;;;;;;5.85;5.35;;;8.90;99.90;;;;;;5097041;28;20238;-80
2023/11/18 00:33:12;;;;;;;6.55;5.90;;;8.90;99.90;;;;;;5095690;28;20326;-80
2023/11/18 00:35:39;;;;;;;6.60;5.38;;;8.90;99.90;;;;;;5096695;28;20306;-80
2023/11/18 00:38:06;;;;;;;6.82;5.90;;;8.90;99.90;;;;;;5090904;28;20227;-80
2023/11/18 00:40:35;;;;;;;8.13;5.93;;;9.00;99.90;;;;;;5076599;28;20231;-80
2023/11/18 00:43:11;;;;;;;7.10;6.40;;;9.00;99.90;;;;;;5065021;28;20626;-83
2023/11/18 00:45:39;;;;;;;6.10;5.60;;;8.90;99.90;;;;;;5073704;28;20678;-84
2023/11/18 00:48:06;;;;;;;6.65;5.47;;;8.90;99.90;;;;;;5073675;28;20224;-83
2023/11/18 00:50:34;;;;;;;5.53;5.00;;;9.00;99.90;;;;;;5075331;28;20224;-84
2023/11/18 00:53:02;;;;;;;5.57;5.18;;;9.00;99.90;;;;;;5074075;28;20285;-81
2023/11/18 00:55:29;;;;;;;7.32;6.25;;;9.00;99.90;;;;;;5073414;28;20224;-84
2023/11/18 00:57:57;;;;;;;6.85;6.25;;;8.90;99.90;;;;;;5074250;28;20259;-81
2023/11/18 01:00:26;;;;;;;6.30;5.60;;;8.90;99.90;;;;;;5076622;28;20224;-80
2023/11/18 01:02:54;;;;;;;6.32;5.50;;;8.90;99.90;;;;;;5073311;28;20228;-84
2023/11/18 01:05:24;;;;;;;6.03;4.85;;;9.00;99.90;;;;;;5075833;28;20223;-84
2023/11/18 01:07:52;;;;;;;5.80;5.30;;;9.00;99.90;;;;;;5075139;28;20311;-81
2023/11/18 01:10:20;;;;;;;6.13;5.55;;;9.00;99.90;;;;;;5075746;28;20220;-84
2023/11/18 01:12:47;;;;;;;7.45;6.53;;;9.00;99.90;;;;;;5074246;28;20289;-84
2023/11/18 01:15:14;;;;;;;7.65;6.78;;;9.00;99.90;;;;;;5074674;28;20216;-84
2023/11/18 01:17:44;;;;;;;9.23;6.97;;;9.00;99.90;;;;;;5077426;28;20267;-81
2023/11/18 01:20:20;;;;;;;6.20;5.60;;;8.90;99.90;;;;;;5076449;28;20224;-84
2023/11/18 01:22:50;;;;;;;5.60;5.10;;;8.90;99.90;;;;;;5075571;28;20681;-80
2023/11/18 01:25:18;;;;;;;7.40;5.60;;;9.00;99.90;;;;;;5074732;28;20299;-83
2023/11/18 01:27:48;;;;;;;5.90;5.50;;;8.90;99.90;;;;;;5076101;28;20293;-83
2023/11/18 01:30:15;;;;;;;5.40;4.90;;;8.90;99.90;;;;;;5075376;28;20569;-80
2023/11/18 01:32:42;;;;;;;6.25;5.65;;;8.90;99.90;;;;;;5075580;28;20232;-80
2023/11/18 01:35:10;;;;;;;7.65;6.43;;;8.90;99.90;;;;;;5074845;28;20313;-80
2023/11/18 01:37:37;;;;;;;5.53;5.03;;;9.00;99.90;;;;;;5075603;28;20224;-84
2023/11/18 01:40:06;;;;;;;5.75;4.97;;;8.90;99.90;;;;;;5074866;28;20224;-83
2023/11/18 01:42:35;;;;;;;7.50;6.18;;;8.90;99.90;;;;;;5074999;28;20228;-80
2023/11/18 01:45:03;;;;;;;10.82;9.45;;;9.00;99.90;;;;;;5074201;28;20228;-80
2023/11/18 01:47:33;;;;;;;6.95;5.97;;;8.90;99.90;;;;;;5075313;28;20227;-83
2023/11/18 01:50:01;;;;;;;6.93;5.05;;;8.90;99.90;;;;;;5074737;28;20228;-80
2023/11/18 01:52:30;;;;;;;6.22;5.65;;;8.90;99.90;;;;;;5074700;28;20228;-80
2023/11/18 01:54:57;;;;;;;8.68;7.53;;;8.90;99.90;;;;;;5074980;28;20231;-80
2023/11/18 01:57:26;;;;;;;8.98;7.00;;;8.90;99.90;;;;;;5073307;28;20215;-83
2023/11/18 01:59:55;;;;;;;6.30;5.70;;;8.90;99.90;;;;;;5073510;28;20216;-84
2023/11/18 02:02:22;;;;;;;8.13;7.18;;;8.80;99.90;;;;;;5074238;28;20240;-81
2023/11/18 02:04:49;;;;;;;4.72;4.30;;;8.80;99.90;;;;;;5074262;28;20239;-80
2023/11/18 02:07:16;;;;;;;7.55;6.22;;;8.80;99.90;;;;;;5074277;28;20227;-80
2023/11/18 02:09:45;;;;;;;7.63;7.00;;;8.90;99.90;;;;;;5074985;28;20285;-79
2023/11/18 02:12:21;;;;;;;5.35;4.88;;;8.90;99.90;;;;;;5074409;28;20754;-80
2023/11/18 02:14:50;;;;;;;10.50;8.35;;;8.80;99.90;;;;;;5061072;28;20641;-79
2023/11/18 02:17:24;;;;;;;9.25;7.50;;;8.80;99.90;;;;;;5068976;28;20254;-80
2023/11/18 02:19:53;;;;;;;7.95;7.15;;;8.80;99.90;;;;;;5074811;28;20220;-80
2023/11/18 02:22:21;;;;;;;6.88;6.18;;;8.80;99.90;;;;;;5073779;28;20256;-79
2023/11/18 02:24:48;;;;;;;6.40;5.90;;;8.90;99.90;;;;;;5074594;28;20254;-79
2023/11/18 02:27:20;;;;;;;6.20;5.65;;;8.90;99.90;;;;;;5074093;28;20596;-83
2023/11/18 02:29:51;;;;;;;6.43;5.82;;;8.80;99.90;;;;;;5074271;28;20231;-83
2023/11/18 02:32:39;;;;;;;8.00;5.63;;;8.80;99.90;;;;;;5073917;28;20224;-79
2023/11/18 02:35:15;;;;;;;13.98;11.55;;;8.80;99.90;;;;;;5073782;28;20220;-79
2023/11/18 02:37:47;;;;;;;7.25;6.22;;;8.80;99.90;;;;;;5073849;28;20311;-84
2023/11/18 02:40:20;;;;;;;6.03;5.50;;;8.80;99.90;;;;;;5073973;28;20306;-79
2023/11/18 02:42:53;;;;;;;6.38;5.68;;;8.80;99.90;;;;;;5073386;28;20228;-80
2023/11/18 02:45:21;;;;;;;6.22;5.63;;;8.80;99.90;;;;;;5074196;28;20224;-79
2023/11/18 02:47:48;;;;;;;7.03;6.30;;;8.80;99.90;;;;;;5073391;28;20737;-79
2023/11/18 02:50:19;;;;;;;7.63;6.70;;;8.80;99.90;;;;;;5073061;28;20752;-83
2023/11/18 02:52:46;;;;;;;6.18;5.57;;;8.80;99.90;;;;;;5062676;28;20537;-79
2023/11/18 02:55:13;;;;;;;6.05;5.47;;;8.70;99.90;;;;;;5073519;28;20215;-79
2023/11/18 02:57:40;;;;;;;9.25;7.65;;;8.80;99.90;;;;;;5073674;28;20623;-84
2023/11/18 03:00:21;;;;;;;9.32;8.32;;;8.80;99.90;;;;;;5073872;28;20231;-80
2023/11/18 03:02:50;;;;;;;7.88;6.68;;;8.80;99.90;;;;;;5071001;28;20239;-80
2023/11/18 03:05:17;;;;;;;6.13;5.50;;;8.80;99.90;;;;;;5073797;28;20223;-83
2023/11/18 03:07:47;;;;;;;6.00;5.50;;;8.80;99.90;;;;;;5073268;28;20274;-81
2023/11/18 03:10:20;;;;;;;6.20;5.47;;;8.80;99.90;;;;;;5073726;28;20223;-81
2023/11/18 03:12:48;;;;;;;8.00;5.50;;;8.80;99.90;;;;;;5073263;28;20236;-81
2023/11/18 03:15:17;;;;;;;6.78;6.00;;;8.80;99.90;;;;;;5073297;28;20757;-80
2023/11/18 03:17:45;;;;;;;7.15;5.93;;;8.80;99.90;;;;;;5072779;28;20220;-81
2023/11/18 03:20:16;;;;;;;6.40;5.80;;;8.80;99.90;;;;;;5073818;28;20315;-80
2023/11/18 03:22:43;;;;;;;9.13;6.00;;;8.80;99.90;;;;;;5053087;28;20228;-80
2023/11/18 03:25:11;;;;;;;6.68;6.00;;;8.80;99.90;;;;;;5053694;28;20224;-80
2023/11/18 03:27:37;;;;;;;6.03;5.43;;;8.80;99.90;;;;;;5052880;28;20290;-83
2023/11/18 03:30:08;;;;;;;6.45;5.35;;;8.80;99.90;;;;;;5053298;28;20571;-82
2023/11/18 03:32:38;;;;;;;6.75;5.65;;;8.80;99.90;;;;;;5052831;28;20225;-84
2023/11/18 03:35:08;;;;;;;5.70;5.20;;;8.80;99.90;;;;;;5053347;28;20234;-82
2023/11/18 03:37:35;;;;;;;7.18;5.43;;;8.80;99.90;;;;;;5052658;28;20232;-83
2023/11/18 03:40:04;;;;;;;5.50;5.00;;;8.80;99.90;;;;;;5052796;28;20743;-84
2023/11/18 03:42:30;;;;;;;6.20;5.38;;;8.80;99.90;;;;;;5053572;28;20262;-80
2023/11/18 03:45:02;;;;;;;5.70;5.20;;;8.80;99.90;;;;;;5052809;28;20248;-82
2023/11/18 03:47:30;;;;;;;5.60;5.10;;;8.80;99.90;;;;;;5053320;28;20233;-82
2023/11/18 03:50:01;;;;;;;6.72;6.13;;;8.80;99.90;;;;;;5052746;28;20220;-80
2023/11/18 03:52:28;;;;;;;5.03;4.40;;;8.90;99.90;;;;;;5053799;28;20319;-83
2023/11/18 03:54:56;;;;;;;5.38;4.88;;;8.90;99.90;;;;;;5052752;28;20228;-82
2023/11/18 03:57:23;;;;;;;4.80;4.40;;;8.90;99.90;;;;;;5053325;28;20622;-81
2023/11/18 03:59:50;;;;;;;5.35;4.85;;;8.90;99.90;;;;;;5053076;28;20220;-84
2023/11/18 04:02:17;;;;;;;9.93;5.60;;;8.90;99.90;;;;;;5041240;28;20220;-81
2023/11/18 04:04:44;;;;;;;5.38;4.50;;;8.90;99.90;;;;;;5071496;28;20273;-81
2023/11/18 04:07:12;;;;;;;6.53;5.93;;;8.90;99.90;;;;;;5073074;28;20228;-81
2023/11/18 04:09:41;;;;;;;5.72;5.22;;;8.90;99.90;;;;;;5071699;28;20234;-81
2023/11/18 04:12:17;;;;;;;5.47;4.97;;;8.90;99.90;;;;;;5071178;28;20261;-84
2023/11/18 04:14:50;;;;;;;16.83;14.75;;;8.90;99.90;;;;;;5072222;28;20281;-83
2023/11/18 04:17:17;;;;;;;5.88;5.32;;;8.90;99.90;;;;;;5072591;28;20250;-80
2023/11/18 04:19:45;;;;;;;5.07;4.68;;;8.90;99.90;;;;;;5070758;28;20228;-80
2023/11/18 04:22:13;;;;;;;5.80;5.30;;;8.80;99.90;;;;;;5073393;28;20549;-84
2023/11/18 04:24:42;;;;;;;6.72;5.15;;;8.80;99.90;;;;;;5073081;28;20285;-80
2023/11/18 04:27:11;;;;;;;5.05;4.65;;;8.80;99.90;;;;;;5072066;28;20664;-84
2023/11/18 04:29:40;;;;;;;5.88;5.25;;;8.80;99.90;;;;;;5073069;28;20234;-84
2023/11/18 04:32:08;;;;;;;6.13;5.53;;;8.90;99.90;;;;;;5072628;28;20625;-82
2023/11/18 04:34:36;;;;;;;6.53;5.70;;;8.80;99.90;;;;;;5072747;28;20255;-82
2023/11/18 04:37:04;;;;;;;6.43;5.82;;;8.80;99.90;;;;;;5072094;28;20232;-83
2023/11/18 04:39:34;;;;;;;5.93;5.32;;;8.80;99.90;;;;;;5072796;28;20220;-80
2023/11/18 04:42:02;;;;;;;5.13;4.57;;;8.80;99.90;;;;;;5072036;28;20243;-80
2023/11/18 04:44:31;;;;;;;7.88;7.07;;;8.80;99.90;;;;;;5072553;28;20216;-79
2023/11/18 04:46:58;;;;;;;6.43;5.82;;;8.80;99.90;;;;;;5072386;28;20219;-80
2023/11/18 04:49:25;;;;;;;6.15;5.65;;;8.80;99.90;;;;;;5063365;28;20224;-80
2023/11/18 04:51:52;;;;;;;7.00;6.35;;;8.70;99.90;;;;;;5075213;28;20311;-83
2023/11/18 04:54:21;;;;;;;7.88;7.07;;;8.70;99.90;;;;;;5076649;28;20724;-81
2023/11/18 04:56:49;;;;;;;12.57;6.65;;;8.70;99.90;;;;;;5076433;28;20742;-83
2023/11/18 04:59:17;;;;;;;6.25;5.70;;;8.70;99.90;;;;;;5076117;28;20215;-83
2023/11/18 05:01:44;;;;;;;7.05;6.40;;;8.70;99.90;;;;;;5076404;28;20258;-80
2023/11/18 05:04:11;;;;;;;6.78;6.15;;;8.70;99.90;;;;;;5075664;28;20236;-80
2023/11/18 05:06:38;;;;;;;6.47;5.93;;;8.70;99.90;;;;;;5076217;28;20228;-80
2023/11/18 05:09:07;;;;;;;6.03;5.47;;;8.70;99.90;;;;;;5075818;28;20705;-79
2023/11/18 05:11:34;;;;;;;6.90;5.93;;;8.70;99.90;;;;;;5075702;28;20743;-80
2023/11/18 05:14:04;;;;;;;6.70;5.70;;;8.70;99.90;;;;;;5075450;28;20224;-80
2023/11/18 05:16:31;;;;;;;6.10;5.50;;;8.70;99.90;;;;;;5076228;28;20611;-83
2023/11/18 05:18:58;;;;;;;6.20;5.70;;;8.70;99.90;;;;;;5075364;28;20281;-80
2023/11/18 05:21:25;;;;;;;6.05;5.45;;;8.70;99.90;;;;;;5075061;28;20232;-80
2023/11/18 05:23:52;;;;;;;5.82;5.22;;;8.70;99.90;;;;;;5075220;28;20231;-80
2023/11/18 05:26:19;;;;;;;7.70;6.95;;;8.70;99.90;;;;;;5074977;28;20290;-80
2023/11/18 05:28:46;;;;;;;6.55;5.82;;;8.70;99.90;;;;;;5075867;28;20290;-83
2023/11/18 05:31:14;;;;;;;6.05;5.55;;;8.70;99.90;;;;;;5075124;28;20224;-80
2023/11/18 05:33:41;;;;;;;6.90;6.30;;;8.70;99.90;;;;;;5075613;28;20282;-84
2023/11/18 05:36:11;;;;;;;7.88;6.80;;;8.80;99.90;;;;;;5075097;28;20315;-84
2023/11/18 05:38:38;;;;;;;6.53;5.88;;;8.80;99.90;;;;;;5074847;28;22713;-83
2023/11/18 05:41:16;;;;;;;6.50;5.78;;;8.80;99.90;;;;;;5075649;28;20224;-84
2023/11/18 05:43:51;;;;;;;6.70;6.00;;;8.80;99.90;;;;;;5074943;28;20246;-80
2023/11/18 05:46:25;;;;;;;8.35;6.35;;;8.80;99.90;;;;;;5075246;28;20614;-80
2023/11/18 05:48:53;;;;;;;7.82;6.13;;;8.80;99.90;;;;;;5075338;28;20231;-80
2023/11/18 05:51:22;;;;;;;6.72;6.13;;;8.80;99.90;;;;;;5075339;28;20216;-84
2023/11/18 05:53:50;;;;;;;6.55;5.43;;;8.80;99.90;;;;;;5075056;28;20215;-83
2023/11/18 05:56:17;;;;;;;7.22;6.57;;;8.80;99.90;;;;;;5075281;28;20548;-80
2023/11/18 05:58:44;;;;;;;6.90;5.75;;;8.80;99.90;;;;;;5074653;28;20642;-80
2023/11/18 06:01:12;;;;;;;7.43;6.25;;;8.70;99.90;;;;;;5074780;28;20689;-84
2023/11/18 06:03:41;;;;;;;7.90;6.95;;;8.80;99.90;;;;;;5074690;28;20622;-84
2023/11/18 06:06:08;;;;;;;7.35;6.43;;;8.70;99.90;;;;;;5074974;28;20684;-80
2023/11/18 06:08:37;;;;;;;8.13;7.32;;;8.70;99.90;;;;;;5074267;28;20230;-80
2023/11/18 06:11:12;;;;;;;7.80;6.90;;;8.70;99.90;;;;;;5074784;28;20230;-80
2023/11/18 06:13:42;;;;;;;7.50;6.70;;;8.70;99.90;;;;;;5074380;28;20227;-80
2023/11/18 06:16:14;;;;;;;6.90;6.20;;;8.70;99.90;;;;;;5074696;28;20234;-84
2023/11/18 06:18:44;;;;;;;7.03;6.32;;;8.70;99.90;;;;;;5074897;28;20692;-83
2023/11/18 06:21:13;;;;;;;9.40;7.85;;;8.70;99.90;;;;;;5066133;28;20301;-80
2023/11/18 06:23:40;;;;;;;8.40;7.60;;;8.70;99.90;;;;;;5074221;28;20242;-81
2023/11/18 06:26:10;;;;;;;7.85;6.47;;;8.70;99.90;;;;;;5075051;28;20257;-80
2023/11/18 06:28:37;;;;;;;8.70;7.03;;;8.70;99.90;;;;;;5074726;28;20311;-83
2023/11/18 06:31:08;;;;;;;7.82;6.60;;;8.70;99.90;;;;;;5076102;28;20281;-83
2023/11/18 06:33:42;;;;;;;7.53;6.78;;;8.70;99.90;;;;;;5077489;28;20240;-80
2023/11/18 06:36:17;;;;;;;7.47;6.78;;;8.70;99.90;;;;;;5079852;28;20244;-81
2023/11/18 06:38:45;;;;;;;9.70;6.70;;;8.60;99.90;;;;;;5082714;28;20243;-81
2023/11/18 06:41:16;;;;;;;9.13;7.63;;;8.60;99.90;;;;;;5087869;28;20308;-84
2023/11/18 06:43:51;;;;;;;7.68;6.63;;;8.60;99.90;;;;;;5076197;28;20255;-83
2023/11/18 06:46:21;;;;;;;7.95;6.88;;;8.60;99.90;;;;;;5075053;28;20302;-83
2023/11/18 06:48:49;;;;;;;6.65;6.03;;;8.60;99.90;;;;;;5074629;28;20224;-83
2023/11/18 06:51:23;;;;;;;9.25;6.82;;;8.60;99.90;;;;;;5074557;28;20220;-81
2023/11/18 06:53:54;;;;;;;10.15;7.95;;;8.60;99.90;;;;;;5073436;28;20533;-80
2023/11/18 06:56:24;;;;;;;9.52;8.02;;;8.60;99.90;;;;;;5074037;28;20274;-80
2023/11/18 06:58:51;;;;;;;8.73;7.88;;;8.60;99.90;;;;;;5073504;28;20565;-80
2023/11/18 07:01:19;;;;;;;9.68;7.65;;;8.50;99.90;;;;;;5073379;28;20223;-80
2023/11/18 07:03:48;;;;;;;8.25;7.45;;;8.50;99.90;;;;;;5073274;28;20224;-80
2023/11/18 07:06:22;;;;;;;10.30;7.35;;;8.50;99.90;;;;;;5075177;28;20727;-80
2023/11/18 07:08:49;;;;;;;11.00;7.97;;;8.50;99.90;;;;;;5074573;28;20219;-82
2023/11/18 07:11:17;;;;;;;9.60;8.60;;;8.50;99.90;;;;;;5073569;28;20790;-83
2023/11/18 07:13:44;;;;;;;10.80;8.68;;;8.50;99.90;;;;;;5072190;28;20727;-80
2023/11/18 07:16:11;;;;;;;9.32;7.72;;;8.50;99.90;;;;;;5073756;28;20220;-83
2023/11/18 07:18:38;;;;;;;10.15;8.30;;;8.50;99.90;;;;;;5072263;28;20613;-81
2023/11/18 07:21:06;;;;;;;10.25;8.27;;;8.50;99.90;;;;;;5073177;28;20224;-80
2023/11/18 07:23:35;;;;;;;10.27;8.50;;;8.50;99.90;;;;;;5074090;28;20239;-83
2023/11/18 07:26:03;;;;;;;11.80;8.52;;;8.40;99.90;;;;;;5074150;28;20715;-83
2023/11/18 07:28:31;;;;;;;8.20;7.40;;;8.40;99.90;;;;;;5074775;28;20239;-83
2023/11/18 07:30:59;;;;;;;9.57;7.95;;;8.40;99.90;;;;;;5073060;28;20228;-80
2023/11/18 07:33:26;;;;;;;10.80;8.65;;;8.40;99.90;;;;;;5074712;28;20232;-83
2023/11/18 07:35:54;;;;;;;12.02;8.85;;;8.50;99.90;;;;;;5075204;28;20220;-82
2023/11/18 07:38:21;;;;;;;12.85;10.13;;;8.40;99.90;;;;;;5074010;28;20242;-80
2023/11/18 07:40:52;;;;;;;10.85;9.27;;;8.40;99.90;;;;;;5075680;28;20307;-83
2023/11/18 07:43:21;;;;;;;12.25;10.30;;;8.50;99.90;;;;;;5072968;28;20227;-83
2023/11/18 07:45:50;;;;;;;10.82;9.73;;;8.40;99.90;;;;;;5062195;28;20258;-83
2023/11/18 07:48:17;;;;;;;12.63;10.32;;;8.50;99.90;;;;;;5072850;28;20231;-83
2023/11/18 07:50:45;;;;;;;10.70;9.48;;;8.50;99.90;;;;;;5072323;28;20220;-80
2023/11/18 07:53:13;;;;;;;11.85;8.95;;;8.50;99.90;;;;;;5072939;28;20227;-80
2023/11/18 07:55:40;;;;;;;10.05;8.82;;;8.50;99.90;;;;;;5073339;28;20258;-80
2023/11/18 07:58:10;;;;;;;12.65;8.90;;;8.50;99.90;;;;;;5072531;28;20293;-83
2023/11/18 08:00:39;;;;;;;10.48;9.05;;;8.50;99.90;;;;;;5073354;28;20228;-80
2023/11/18 08:03:11;;;;;;;9.35;8.40;;;8.50;99.90;;;;;;5072392;28;20306;-83
2023/11/18 08:05:39;;;;;;;11.23;7.53;;;8.50;99.90;;;;;;5073342;28;20228;-83
2023/11/18 08:08:07;;;;;;;11.20;8.65;;;8.50;99.90;;;;;;5071958;28;20232;-83
2023/11/18 08:10:37;;;;;;;9.90;7.70;;;8.50;99.90;;;;;;5072822;28;20224;-80
2023/11/18 08:13:05;;;;;;;8.70;7.15;;;8.60;99.90;;;;;;5072003;28;20295;-80
2023/11/18 08:15:34;;;;;;;9.60;8.25;;;8.50;99.90;;;;;;5073016;28;20228;-80
2023/11/18 08:18:01;;;;;;;12.48;10.00;;;8.60;99.90;;;;;;5072354;28;20618;-83
2023/11/18 08:20:28;;;;;;;11.35;9.75;;;8.60;99.90;;;;;;5062378;28;20725;-80
2023/11/18 08:22:55;;;;;;;14.82;11.60;;;8.60;99.90;;;;;;5072336;28;20224;-82
2023/11/18 08:25:22;;;;;;;19.35;13.48;;;8.60;99.90;;;;;;5075121;28;20220;-83
2023/11/18 08:27:50;;;;;;;13.90;11.63;;;8.70;99.90;;;;;;5076667;28;20625;-79
2023/11/18 08:30:17;;;;;;;11.43;10.18;;;8.70;99.90;;;;;;5076518;28;20267;-82
2023/11/18 08:32:47;;;;;;;14.25;9.98;;;8.70;99.90;;;;;;5076315;28;20255;-82
2023/11/18 08:35:15;;;;;;;13.27;11.00;;;8.70;99.90;;;;;;5076427;28;20227;-82
2023/11/18 08:37:47;;;;;;;12.88;10.93;;;8.80;99.90;;;;;;5078358;28;20227;-79
2023/11/18 08:40:16;;;;;;;15.77;11.30;;;8.80;99.90;;;;;;5077297;28;20224;-83
2023/11/18 08:42:47;;;;;;;11.25;8.70;;;8.80;99.90;;;;;;5076725;28;20588;-81
2023/11/18 08:45:16;;;;;;;10.35;9.30;;;8.80;99.90;;;;;;5075944;28;20223;-80
2023/11/18 08:47:46;;;;;;;8.50;7.53;;;8.90;99.90;;;;;;5076532;28;20315;-83
2023/11/18 08:50:16;;;;;;;10.13;8.98;;;9.00;99.90;;;;;;5075813;28;20224;-81
2023/11/18 08:52:46;;;;;;;10.48;9.38;;;9.00;99.90;;;;;;5076560;28;20578;-80
2023/11/18 08:55:17;;;;;;;9.30;8.23;;;9.00;99.90;;;;;;5075653;28;20221;-80
2023/11/18 08:57:52;;;;;;;10.00;7.85;;;9.00;99.90;;;;;;5076426;28;20589;-80
2023/11/18 09:03:05;;;;;;;8.15;6.75;;;9.00;99.90;;;;;;5073333;28;20224;-83
2023/11/18 09:05:35;;;;;;;7.25;6.53;;;9.00;99.90;;;;;;5076262;28;20242;-83
2023/11/18 09:08:05;;;;;;;6.13;5.53;;;9.00;99.90;;;;;;5075583;28;20244;-83
2023/11/18 09:10:32;;;;;;;7.80;7.00;;;9.00;99.90;;;;;;5076046;28;20319;-80
2023/11/18 09:12:59;;;;;;;7.80;6.72;;;9.00;99.90;;;;;;5075095;28;20285;-80
2023/11/18 09:15:26;;;;;;;7.22;6.55;;;9.00;99.90;;;;;;5075728;28;20306;-83
2023/11/18 09:17:59;;;;;;;9.75;7.10;;;9.00;99.90;;;;;;5075568;28;20231;-82
2023/11/18 09:20:29;;;;;;;9.60;7.53;;;9.00;99.90;;;;;;5075682;28;20254;-83
2023/11/18 09:22:56;;;;;;;7.03;6.10;;;9.00;99.90;;;;;;5075307;28;20228;-84
2023/11/18 09:25:23;;;;;;;8.55;6.65;;;9.00;99.90;;;;;;5074736;28;20307;-84
2023/11/18 09:27:52;;;;;;;8.65;7.00;;;9.10;99.90;;;;;;5075359;28;20248;-80
2023/11/18 09:30:19;;;;;;;9.02;6.45;;;9.10;99.90;;;;;;5074963;28;20317;-80
2023/11/18 09:32:47;;;;;;;9.65;8.25;;;9.10;99.90;;;;;;5065374;28;20263;-80
2023/11/18 09:35:20;;;;;;;8.65;7.05;;;9.10;99.90;;;;;;5074186;28;20220;-80
2023/11/18 09:37:50;;;;;;;6.95;6.25;;;9.20;99.90;;;;;;5074913;28;20307;-83
2023/11/18 09:40:23;;;;;;;6.95;6.07;;;9.20;99.90;;;;;;5075254;28;20234;-80
2023/11/18 09:42:58;;;;;;;11.73;7.82;;;9.30;99.90;;;;;;5074431;28;20224;-80
2023/11/18 09:45:26;;;;;;;8.63;7.40;;;9.30;99.90;;;;;;5075312;28;20664;-83
2023/11/18 09:47:54;;;;;;;7.45;6.70;;;9.30;99.90;;;;;;5074882;28;20232;-79
2023/11/18 09:50:29;;;;;;;8.02;7.22;;;9.30;99.90;;;;;;5065212;28;20223;-83
2023/11/18 09:53:11;;;;;;;7.07;6.38;;;9.30;99.90;;;;;;5074066;28;20235;-82
2023/11/18 09:55:46;;;;;;;9.20;7.18;;;9.40;99.90;;;;;;5075954;28;20219;-83
2023/11/18 09:58:24;;;;;;;11.52;8.20;;;9.40;99.90;;;;;;5066838;28;20228;-80
2023/11/18 10:01:02;;;;;;;7.60;6.47;;;9.40;99.90;;;;;;5075011;28;20271;-80
2023/11/18 10:03:29;;;;;;;6.95;6.32;;;9.40;99.90;;;;;;5074706;28;20227;-79
2023/11/18 10:06:15;;;;;;;8.75;7.18;;;9.40;99.90;;;;;;5075079;28;20240;-80
2023/11/18 10:08:46;;;;;;;6.55;5.40;;;9.40;99.90;;;;;;5075358;28;20258;-80
2023/11/18 10:11:15;;;;;;;6.75;6.00;;;9.50;99.90;;;;;;5075111;28;20709;-80
2023/11/18 10:13:44;;;;;;;6.70;6.05;;;9.50;99.90;;;;;;5074996;28;20608;-80
2023/11/18 10:16:11;;;;;;;6.03;5.38;;;9.50;99.90;;;;;;5066011;28;20302;-80
2023/11/18 10:18:48;;;;;;;6.45;5.50;;;9.50;99.90;;;;;;5075024;28;20296;-80
2023/11/18 10:21:30;;;;;;;6.35;5.68;;;9.50;99.90;;;;;;5063502;28;20232;-84
2023/11/18 10:24:05;;;;;;;6.30;5.70;;;9.50;99.90;;;;;;5047579;28;20560;-83
2023/11/18 10:26:32;;;;;;;7.22;5.07;;;9.50;99.90;;;;;;5074607;28;20234;-80
2023/11/18 10:29:08;;;;;;;6.20;5.20;;;9.60;99.90;;;;;;5074294;28;20243;-80
2023/11/18 10:31:36;;;;;;;5.70;4.88;;;9.60;99.90;;;;;;5074562;28;20224;-80
2023/11/18 10:34:03;;;;;;;16.58;12.32;;;9.60;99.90;;;;;;5074311;28;20224;-84
2023/11/18 10:36:33;;;;;;;10.75;9.10;;;9.60;99.90;;;;;;5075140;28;20228;-80
2023/11/18 10:39:23;;;;;;;7.68;6.88;;;9.70;99.90;;;;;;5074477;28;20227;-84
2023/11/18 10:41:52;;;;;;;6.43;5.82;;;9.70;99.90;;;;;;5074504;28;20239;-81
2023/11/18 10:44:23;;;;;;;6.13;5.53;;;9.70;99.90;;;;;;5074667;28;20273;-83
2023/11/18 10:46:53;;;;;;;7.20;6.10;;;9.70;99.90;;;;;;5073776;28;20307;-81
2023/11/18 10:49:21;;;;;;;6.43;5.18;;;9.70;99.90;;;;;;5073405;28;20238;-80
2023/11/18 10:51:50;;;;;;;6.30;5.35;;;9.70;99.90;;;;;;5074628;28;20377;-81
2023/11/18 10:54:21;;;;;;;5.85;5.35;;;9.70;99.90;;;;;;5064106;28;20564;-84
2023/11/18 10:56:56;;;;;;;10.13;8.25;;;9.80;99.90;;;;;;5073558;28;20219;-80
2023/11/18 10:59:28;;;;;;;7.88;6.85;;;9.80;99.90;;;;;;5073800;28;20242;-84
2023/11/18 11:01:57;;;;;;;6.85;6.15;;;9.80;99.90;;;;;;5074657;28;20228;-80
2023/11/18 11:04:24;;;;;;;6.35;5.75;;;9.80;99.90;;;;;;5074292;28;20665;-80
2023/11/18 11:06:56;;;;;;;10.00;6.35;;;9.80;99.90;;;;;;5074199;28;20324;-81
2023/11/18 11:09:27;;;;;;;6.05;5.50;;;9.80;99.90;;;;;;5072844;28;20282;-84
2023/11/18 11:12:03;;;;;;;8.80;7.32;;;9.90;99.90;;;;;;5075948;28;20228;-83
2023/11/18 11:14:36;;;;;;;8.82;7.10;;;9.80;99.90;;;;;;5074192;28;20234;-84
2023/11/18 11:17:12;;;;;;;7.88;6.88;;;9.80;99.90;;;;;;5074017;28;20673;-80
2023/11/18 11:19:48;;;;;;;9.15;6.72;;;9.80;99.90;;;;;;5072750;28;20219;-80
2023/11/18 11:22:24;;;;;;;8.38;6.43;;;9.80;99.90;;;;;;5074618;28;20250;-80
2023/11/18 11:25:08;;;;;;;11.48;7.10;;;9.80;99.90;;;;;;5075406;28;20216;-83
2023/11/18 11:27:51;;;;;;;7.25;5.90;;;9.90;99.90;;;;;;5074741;28;20581;-84
2023/11/18 11:30:25;;;;;;;7.10;6.40;;;9.90;99.90;;;;;;5073834;28;20729;-84
2023/11/18 11:32:53;;;;;;;8.45;7.50;;;9.90;99.90;;;;;;5074343;28;20289;-83
2023/11/18 11:35:24;;;;;;;13.95;8.43;;;9.90;99.90;;;;;;5074594;28;20224;-83
2023/11/18 11:37:57;;;;;;;8.57;7.38;;;9.90;99.90;;;;;;5064647;28;20216;-82
2023/11/18 11:40:31;;;;;;;8.45;7.55;;;9.90;99.90;;;;;;5073174;28;20231;-81
2023/11/18 11:43:04;;;;;;;11.77;10.10;;;9.90;99.90;;;;;;5077619;28;20247;-84
2023/11/18 11:45:32;;;;;;;14.90;9.05;;;9.90;99.90;;;;;;5075109;28;20236;-82
2023/11/18 11:51:08;;;;;;;10.82;9.70;;;9.90;99.90;;;;;;5074558;28;20224;-84
2023/11/18 11:53:46;;;;;;;10.10;9.10;;;9.90;99.90;;;;;;5074978;28;20235;-80
2023/11/18 11:56:20;;;;;;;11.48;8.13;;;9.90;99.90;;;;;;5064272;28;20552;-80
2023/11/18 11:58:53;;;;;;;8.48;7.45;;;9.90;99.90;;;;;;5074241;28;20224;-80
2023/11/18 12:01:52;;;;;;;9.10;7.93;;;9.80;99.90;;;;;;5072406;28;20224;-80
2023/11/18 12:04:28;;;;;;;9.70;7.38;;;9.70;99.90;;;;;;5073580;28;20251;-80
2023/11/18 12:06:57;;;;;;;7.18;6.47;;;9.70;99.90;;;;;;5074097;28;20220;-79
2023/11/18 12:09:32;;;;;;;7.70;6.95;;;9.80;99.90;;;;;;5076883;28;20224;-79
2023/11/18 12:12:02;;;;;;;7.00;6.05;;;9.80;99.90;;;;;;5073520;28;20318;-81
2023/11/18 12:14:40;;;;;;;6.43;5.82;;;9.80;99.90;;;;;;5073850;28;20665;-79
2023/11/18 12:17:09;;;;;;;9.13;7.43;;;9.80;99.90;;;;;;5073594;28;20305;-79
2023/11/18 12:19:44;;;;;;;8.45;7.00;;;9.90;99.90;;;;;;5074202;28;20232;-81
2023/11/18 12:22:17;;;;;;;8.13;7.32;;;9.90;99.90;;;;;;5073693;28;20680;-83
2023/11/18 12:24:46;;;;;;;7.70;6.45;;;9.90;99.90;;;;;;5073792;28;20646;-80
2023/11/18 12:27:14;;;;;;;6.97;6.38;;;9.90;99.90;;;;;;5073147;28;20661;-80
2023/11/18 12:29:44;;;;;;;7.28;6.20;;;9.90;99.90;;;;;;5074275;28;20311;-83
2023/11/18 12:32:12;;;;;;;8.18;6.18;;;9.90;99.90;;;;;;5072228;28;20232;-83
2023/11/18 12:34:53;;;;;;;7.85;7.05;;;9.90;99.90;;;;;;5073371;28;20239;-83
2023/11/18 12:37:54;;;;;;;6.90;6.20;;;10.00;99.90;;;;;;5074635;28;20320;-83
2023/11/18 12:40:40;;;;;;;7.03;6.25;;;10.00;99.90;;;;;;5072735;28;20224;-81
2023/11/18 12:43:10;;;;;;;7.68;5.68;;;9.90;99.90;;;;;;5073691;28;20228;-83
2023/11/18 12:46:14;;;;;;;7.00;6.00;;;10.00;99.90;;;;;;5073456;28;20224;-83
2023/11/18 12:48:46;;;;;;;7.47;6.40;;;10.00;99.90;;;;;;5073985;28;20291;-83
2023/11/18 12:51:19;;;;;;;6.63;5.18;;;10.00;99.90;;;;;;5073033;28;20215;-81
2023/11/18 12:53:53;;;;;;;7.95;5.97;;;10.00;99.90;;;;;;5074192;28;20228;-83
2023/11/18 12:56:23;;;;;;;5.80;5.28;;;10.00;99.90;;;;;;5073493;28;20298;-80
2023/11/18 12:58:50;;;;;;;7.00;5.55;;;10.00;99.90;;;;;;5073288;28;20239;-83
2023/11/18 13:01:19;;;;;;;7.50;6.00;;;10.00;99.90;;;;;;5072752;28;20230;-84
2023/11/18 13:03:46;;;;;;;9.27;7.55;;;9.90;99.90;;;;;;5073704;28;20281;-84
2023/11/18 13:06:14;;;;;;;9.63;8.18;;;10.00;99.90;;;;;;5072867;28;20602;-84
2023/11/18 13:08:42;;;;;;;9.10;7.95;;;10.00;99.90;;;;;;5073279;28;20301;-81
2023/11/18 13:11:15;;;;;;;8.00;6.53;;;10.00;99.90;;;;;;5073136;28;20236;-81
2023/11/18 13:13:43;;;;;;;11.52;5.72;;;10.00;99.90;;;;;;5077162;28;20228;-79
2023/11/18 13:16:10;;;;;;;9.05;5.75;;;10.10;99.90;;;;;;5076650;28;20242;-83